createdAt,value
2023-02-18T00:02:20.867Z,101065.03
2023-02-18T00:04:50.651Z,101070.25
2023-02-18T00:07:20.327Z,101067.59
2023-02-18T00:09:49.995Z,101075.59
2023-02-18T00:12:22.353Z,101063.81
2023-02-18T00:14:55.225Z,101064.81
2023-02-18T00:17:24.848Z,101054.06
2023-02-18T00:19:54.672Z,101054.91
2023-02-18T00:22:24.301Z,101052.22
2023-02-18T00:24:54.072Z,101038.19
2023-02-18T00:27:24.002Z,101038.09
2023-02-18T00:29:53.795Z,101037.94
2023-02-18T00:32:23.521Z,101033.22
2023-02-18T00:34:53.134Z,101027.06
2023-02-18T00:37:22.848Z,101022.34
2023-02-18T00:39:52.589Z,101008.19
2023-02-18T00:42:22.286Z,101011.69
2023-02-18T00:44:51.993Z,101015.78
2023-02-18T00:47:21.867Z,101015.78
2023-02-18T00:49:51.587Z,101016.63
2023-02-18T00:52:21.361Z,101015.19
2023-02-18T00:54:51.004Z,101012.28
2023-02-18T00:57:20.632Z,101008.66
2023-02-18T00:59:50.399Z,101002.09
2023-02-18T01:02:20.152Z,101001.13
2023-02-18T01:04:49.972Z,100999.91
2023-02-18T01:07:19.602Z,101008.75
2023-02-18T01:09:49.252Z,101015.88
2023-02-18T01:12:21.571Z,101012.00
2023-02-18T01:14:51.201Z,100994.81
2023-02-18T01:17:20.773Z,100990.44
2023-02-18T01:19:50.396Z,100989.81
2023-02-18T01:22:20.300Z,100989.69
2023-02-18T01:24:50.019Z,100981.56
2023-02-18T01:27:19.713Z,101004.59
2023-02-18T01:29:52.589Z,101012.31
2023-02-18T01:32:22.237Z,101000.41
2023-02-18T01:34:52.006Z,101004.91
2023-02-18T01:37:21.617Z,100992.31
2023-02-18T01:39:51.323Z,100989.41
2023-02-18T01:42:25.368Z,101003.19
2023-02-18T01:44:55.390Z,101003.03
2023-02-18T01:47:25.116Z,101004.38
2023-02-18T01:49:55.314Z,101002.44
2023-02-18T01:52:28.622Z,100998.06
2023-02-18T01:55:01.357Z,101002.28
2023-02-18T01:57:37.442Z,100994.88
2023-02-18T02:00:10.457Z,100994.28
2023-02-18T02:02:44.575Z,100990.03
2023-02-18T02:05:14.382Z,100988.44
2023-02-18T02:07:44.537Z,100989.03
2023-02-18T02:10:15.274Z,100988.63
2023-02-18T02:13:05.958Z,100990.16
2023-02-18T02:15:55.718Z,100990.16
2023-02-18T02:18:46.508Z,100978.06
2023-02-18T02:21:28.190Z,100981.31
2023-02-18T02:24:19.042Z,100981.22
2023-02-18T02:27:25.232Z,100964.25
2023-02-18T02:30:03.866Z,100970.84
2023-02-18T02:32:45.732Z,100978.59
2023-02-18T02:35:54.115Z,100980.31
2023-02-18T02:38:37.297Z,100978.72
2023-02-18T02:41:32.893Z,100965.63
2023-02-18T02:44:21.725Z,100946.34
2023-02-18T02:46:54.534Z,100933.47
2023-02-18T02:49:35.278Z,100938.69
2023-02-18T02:52:24.851Z,100929.78
2023-02-18T03:06:40.164Z,100901.25
2023-02-18T03:09:29.651Z,100905.44
2023-02-18T03:12:16.502Z,100905.22
2023-02-18T03:14:52.198Z,100888.88
2023-02-18T03:17:27.741Z,100885.88
2023-02-18T03:20:15.522Z,100888.84
2023-02-18T03:22:48.582Z,100899.94
2023-02-18T03:25:18.532Z,100902.78
2023-02-18T03:28:09.583Z,100900.56
2023-02-18T03:30:48.331Z,100905.66
2023-02-18T03:33:20.047Z,100899.06
2023-02-18T03:35:49.811Z,100903.41
2023-02-18T03:38:46.630Z,100912.00
2023-02-18T03:41:16.309Z,100901.75
2023-02-18T03:44:06.013Z,100896.44
2023-02-18T03:46:35.948Z,100876.66
2023-02-18T03:49:05.633Z,100856.72
2023-02-18T03:51:35.415Z,100836.66
2023-02-18T03:54:05.109Z,100841.25
2023-02-18T03:56:35.518Z,100836.66
2023-02-18T03:59:05.904Z,100845.75
2023-02-18T04:01:35.595Z,100829.47
2023-02-18T04:04:05.270Z,100813.38
2023-02-18T04:06:34.921Z,100806.31
2023-02-18T04:09:10.289Z,100788.91
2023-02-18T04:11:41.258Z,100779.03
2023-02-18T04:14:11.149Z,100782.63
2023-02-18T04:16:40.752Z,100775.47
2023-02-18T04:19:10.427Z,100764.03
2023-02-18T04:21:40.041Z,100750.06
2023-02-18T04:24:09.762Z,100739.00
2023-02-18T04:26:39.394Z,100727.03
2023-02-18T04:29:09.453Z,100733.50
2023-02-18T04:31:39.182Z,100719.13
2023-02-18T04:34:09.750Z,100719.56
2023-02-18T04:36:39.369Z,100713.53
2023-02-18T04:39:09.013Z,100707.50
2023-02-18T04:41:38.699Z,100709.22
2023-02-18T04:44:08.362Z,100710.63
2023-02-18T04:46:38.245Z,100712.97
2023-02-18T04:49:07.939Z,100713.69
2023-02-18T04:51:39.128Z,100720.72
2023-02-18T04:54:08.839Z,100715.81
2023-02-18T04:56:38.451Z,100712.84
2023-02-18T04:59:08.092Z,100724.22
2023-02-18T05:01:37.904Z,100721.97
2023-02-18T05:04:07.648Z,100719.19
2023-02-18T05:06:37.250Z,100709.47
2023-02-18T05:09:06.952Z,100702.03
2023-02-18T05:11:36.588Z,100705.84
2023-02-18T05:14:06.237Z,100696.84
2023-02-18T05:16:35.838Z,100688.56
2023-02-18T05:19:05.490Z,100689.97
2023-02-18T05:21:35.646Z,100682.50
2023-02-18T05:24:05.317Z,100680.13
2023-02-18T05:26:35.052Z,100667.63
2023-02-18T05:29:04.830Z,100663.16
2023-02-18T05:31:34.638Z,100662.28
2023-02-18T05:34:04.217Z,100664.00
2023-02-18T05:36:33.813Z,100654.59
2023-02-18T05:39:03.430Z,100656.00
2023-02-18T05:41:33.087Z,100655.56
2023-02-18T05:44:21.119Z,100668.34
2023-02-18T05:46:50.704Z,100655.56
2023-02-18T05:49:20.384Z,100661.44
2023-02-18T05:51:49.984Z,100664.56
2023-02-18T05:54:19.590Z,100656.56
2023-02-18T05:56:49.196Z,100650.53
2023-02-18T05:59:18.910Z,100643.22
2023-02-18T06:01:48.794Z,100636.47
2023-02-18T06:04:18.575Z,100625.66
2023-02-18T06:06:48.239Z,100623.09
2023-02-18T06:09:17.975Z,100617.66
2023-02-18T06:11:47.718Z,100597.00
2023-02-18T06:14:17.315Z,100578.34
2023-02-18T06:16:46.945Z,100577.75
2023-02-18T06:19:16.688Z,100568.34
2023-02-18T06:21:46.424Z,100565.25
2023-02-18T06:24:16.166Z,100553.34
2023-02-18T06:26:45.881Z,100561.19
2023-02-18T06:29:15.499Z,100562.56
2023-02-18T06:31:45.204Z,100553.19
2023-02-18T06:34:14.880Z,100556.84
2023-02-18T06:36:44.500Z,100568.19
2023-02-18T06:39:14.089Z,100580.28
2023-02-18T06:41:43.692Z,100575.22
2023-02-18T06:44:13.254Z,100586.63
2023-02-18T06:46:42.839Z,100582.41
2023-02-18T06:49:12.489Z,100586.91
2023-02-18T06:51:42.095Z,100585.63
2023-02-18T06:54:11.784Z,100583.78
2023-02-18T06:56:41.402Z,100593.78
2023-02-18T06:59:11.169Z,100590.56
2023-02-18T07:01:40.801Z,100587.59
2023-02-18T07:04:10.470Z,100589.28
2023-02-18T07:06:40.177Z,100586.63
2023-02-18T07:09:09.825Z,100584.22
2023-02-18T07:11:39.512Z,100585.91
2023-02-18T07:14:09.264Z,100589.00
2023-02-18T07:16:38.992Z,100587.72
2023-02-18T07:19:08.686Z,100594.06
2023-02-18T07:21:38.262Z,100592.94
2023-02-18T07:24:08.314Z,100598.41
2023-02-18T07:26:38.013Z,100599.56
2023-02-18T07:29:07.612Z,100609.91
2023-02-18T07:31:37.403Z,100609.91
2023-02-18T07:34:07.196Z,100620.47
2023-02-18T07:36:36.825Z,100613.88
2023-02-18T07:39:06.558Z,100615.69
2023-02-18T07:41:36.251Z,100620.75
2023-02-18T07:44:06.268Z,100611.06
2023-02-18T07:46:36.033Z,100615.69
2023-02-18T07:49:05.610Z,100617.25
2023-02-18T07:51:35.192Z,100618.75
2023-02-18T07:54:04.860Z,100614.56
2023-02-18T07:56:34.542Z,100609.09
2023-02-18T07:59:04.217Z,100606.97
2023-02-18T08:01:33.964Z,100618.63
2023-02-18T08:04:03.594Z,100615.56
2023-02-18T08:06:38.179Z,100615.69
2023-02-18T08:09:08.103Z,100617.38
2023-02-18T08:11:37.894Z,100612.31
2023-02-18T08:14:07.782Z,100614.69
2023-02-18T08:16:37.550Z,100614.69
2023-02-18T08:19:07.158Z,100611.44
2023-02-18T08:21:36.877Z,100596.31
2023-02-18T08:24:06.678Z,100586.59
2023-02-18T08:26:36.335Z,100593.91
2023-02-18T08:29:05.970Z,100603.75
2023-02-18T08:31:35.679Z,100598.69
2023-02-18T08:34:05.521Z,100602.34
2023-02-18T08:36:35.146Z,100593.91
2023-02-18T08:39:05.021Z,100586.19
2023-02-18T08:41:34.682Z,100580.47
2023-02-18T08:44:04.272Z,100586.75
2023-02-18T08:46:35.268Z,100584.94
2023-02-18T08:49:06.583Z,100589.69
2023-02-18T08:51:36.291Z,100591.41
2023-02-18T08:54:06.006Z,100582.69
2023-02-18T08:56:35.838Z,100578.88
2023-02-18T08:59:05.400Z,100581.84
2023-02-18T09:01:35.105Z,100593.06
2023-02-18T09:04:04.800Z,100595.75
2023-02-18T09:06:34.482Z,100593.63
2023-02-18T09:09:04.152Z,100592.50
2023-02-18T09:11:34.025Z,100601.50
2023-02-18T09:14:04.505Z,100598.41
2023-02-18T09:16:34.155Z,100607.94
2023-02-18T09:19:03.881Z,100604.03
2023-02-18T09:21:33.605Z,100598.81
2023-02-18T09:24:03.591Z,100589.25
2023-02-18T09:26:33.333Z,100590.97
2023-02-18T09:29:03.004Z,100584.06
2023-02-18T09:31:32.737Z,100578.88
2023-02-18T09:34:03.882Z,100579.84
2023-02-18T09:36:33.591Z,100584.19
2023-02-18T09:39:03.322Z,100579.72
2023-02-18T09:41:34.782Z,100581.00
2023-02-18T09:44:41.071Z,100572.16
2023-02-18T09:47:28.584Z,100568.75
2023-02-18T09:50:00.695Z,100577.63
2023-02-18T09:52:39.847Z,100578.47
2023-02-18T09:55:31.884Z,100581.84
2023-02-18T09:58:17.559Z,100588.03
2023-02-18T10:00:50.003Z,100587.19
2023-02-18T10:03:24.380Z,100583.53
2023-02-18T10:06:01.071Z,100579.03
2023-02-18T10:08:32.288Z,100577.63
2023-02-18T10:11:01.848Z,100577.47
2023-02-18T10:13:33.317Z,100572.44
2023-02-18T10:16:03.771Z,100576.63
2023-02-18T10:18:50.740Z,100581.41
2023-02-18T10:21:37.681Z,100581.69
2023-02-18T10:24:20.389Z,100581.84
2023-02-18T10:26:52.802Z,100566.41
2023-02-18T10:29:23.166Z,100558.41
2023-02-18T10:31:59.368Z,100554.91
2023-02-18T10:34:44.901Z,100554.78
2023-02-18T10:37:42.118Z,100560.50
2023-02-18T10:40:35.284Z,100572.31
2023-02-18T10:43:20.052Z,100577.63
2023-02-18T10:46:05.199Z,100580.31
2023-02-18T10:48:52.992Z,100574.97
2023-02-18T10:51:28.157Z,100576.13
2023-02-18T10:53:57.726Z,100568.13
2023-02-18T10:56:44.500Z,100561.94
2023-02-18T10:59:49.882Z,100564.47
2023-02-18T11:02:20.642Z,100568.81
2023-02-18T11:04:50.275Z,100581.19
2023-02-18T11:07:25.403Z,100576.50
2023-02-18T11:09:55.932Z,100580.00
2023-02-18T11:12:32.856Z,100586.19
2023-02-18T11:15:10.718Z,100577.78
2023-02-18T11:17:40.332Z,100574.13
2023-02-18T11:20:29.882Z,100566.84
2023-02-18T11:23:19.879Z,100564.31
2023-02-18T11:26:02.536Z,100569.91
2023-02-18T11:28:47.454Z,100568.94
2023-02-18T11:31:26.379Z,100558.56
2023-02-18T11:33:58.616Z,100549.44
2023-02-18T11:36:30.595Z,100542.28
2023-02-18T11:39:28.142Z,100544.53
2023-02-18T11:42:03.117Z,100550.72
2023-02-18T11:44:38.514Z,100546.22
2023-02-18T11:47:29.791Z,100550.59
2023-02-18T11:50:25.440Z,100560.28
2023-02-18T11:52:56.308Z,100555.66
2023-02-18T11:55:28.745Z,100552.13
2023-02-18T11:58:00.722Z,100550.47
2023-02-18T12:00:42.592Z,100544.81
2023-02-18T12:03:32.934Z,100545.53
2023-02-18T12:06:07.436Z,100552.41
2023-02-18T12:08:41.499Z,100549.75
2023-02-18T12:11:14.942Z,100550.47
2023-02-18T12:14:02.516Z,100549.44
2023-02-18T12:16:41.608Z,100537.94
2023-02-18T12:19:29.392Z,100530.22
2023-02-18T12:22:05.026Z,100538.22
2023-02-18T12:24:46.354Z,100550.41
2023-02-18T12:27:55.464Z,100561.06
2023-02-18T12:30:59.828Z,100557.41
2023-02-18T12:33:51.026Z,100557.66
2023-02-18T12:36:45.415Z,100548.84
2023-02-18T12:39:25.242Z,100548.28
2023-02-18T12:42:03.979Z,100553.59
2023-02-18T12:45:10.051Z,100552.53
2023-02-18T12:48:04.238Z,100557.81
2023-02-18T12:50:52.112Z,100555.00
2023-02-18T12:53:34.022Z,100560.75
2023-02-18T12:56:32.005Z,100563.56
2023-02-18T12:59:18.491Z,100566.34
2023-02-18T13:02:23.461Z,100572.66
2023-02-18T13:05:20.401Z,100574.31
2023-02-18T13:07:49.966Z,100554.16
2023-02-18T13:10:35.070Z,100559.34
2023-02-18T13:13:14.088Z,100571.97
2023-02-18T13:15:55.961Z,100571.81
2023-02-18T13:18:36.049Z,100559.50
2023-02-18T13:21:18.528Z,100559.34
2023-02-18T13:23:53.164Z,100552.19
2023-02-18T13:26:22.902Z,100561.72
2023-02-18T13:29:01.597Z,100548.56
2023-02-18T13:31:38.645Z,100551.50
2023-02-18T13:34:31.129Z,100554.00
2023-02-18T13:37:29.707Z,100554.84
2023-02-18T13:39:59.854Z,100557.25
2023-02-18T13:42:37.334Z,100556.25
2023-02-18T13:45:09.029Z,100549.69
2023-02-18T13:47:45.634Z,100561.72
2023-02-18T13:50:29.118Z,100557.50
2023-02-18T13:53:09.467Z,100556.69
2023-02-18T13:55:42.020Z,100541.69
2023-02-18T13:58:50.601Z,100560.44
2023-02-18T14:01:37.200Z,100550.66
2023-02-18T14:04:27.018Z,100540.84
2023-02-18T14:07:31.534Z,100541.53
2023-02-18T14:10:02.096Z,100529.34
2023-02-18T14:12:45.794Z,100521.91
2023-02-18T14:15:21.169Z,100515.88
2023-02-18T14:18:15.300Z,100511.09
2023-02-18T14:20:54.209Z,100522.91
2023-02-18T14:23:23.759Z,100521.91
2023-02-18T14:26:17.461Z,100503.28
2023-02-18T14:28:47.959Z,100503.13
2023-02-18T14:31:42.493Z,100505.50
2023-02-18T14:34:28.737Z,100500.06
2023-02-18T14:37:18.039Z,100488.84
2023-02-18T14:40:06.241Z,100490.53
2023-02-18T14:43:03.054Z,100492.75
2023-02-18T14:45:56.711Z,100492.47
2023-02-18T14:48:55.798Z,100483.78
2023-02-18T14:51:26.346Z,100477.34
2023-02-18T14:53:55.947Z,100474.97
2023-02-18T14:56:25.696Z,100466.97
2023-02-18T14:58:59.079Z,100477.47
2023-02-18T15:01:36.490Z,100474.13
2023-02-18T15:04:06.632Z,100470.59
2023-02-18T15:06:39.902Z,100470.59
2023-02-18T15:09:22.157Z,100449.72
2023-02-18T15:11:54.577Z,100457.59
2023-02-18T15:14:26.764Z,100462.03
2023-02-18T15:16:56.349Z,100458.00
2023-02-18T15:19:28.391Z,100464.44
2023-02-18T15:21:58.784Z,100462.50
2023-02-18T15:24:40.688Z,100466.16
2023-02-18T15:27:36.646Z,100464.03
2023-02-18T15:30:29.812Z,100469.63
2023-02-18T15:33:00.855Z,100472.16
2023-02-18T15:35:33.032Z,100465.28
2023-02-18T15:38:03.172Z,100457.44
2023-02-18T15:40:34.178Z,100461.94
2023-02-18T15:43:04.443Z,100465.16
2023-02-18T15:45:35.370Z,100462.03
2023-02-18T15:48:05.082Z,100459.53
2023-02-18T15:50:37.142Z,100474.66
2023-02-18T15:53:11.331Z,100477.34
2023-02-18T15:55:41.006Z,100475.81
2023-02-18T15:58:15.965Z,100470.34
2023-02-18T16:00:51.556Z,100466.69
2023-02-18T16:03:42.513Z,100463.31
2023-02-18T16:06:21.843Z,100475.66
2023-02-18T16:09:06.125Z,100467.09
2023-02-18T16:11:40.794Z,100474.25
2023-02-18T16:14:22.972Z,100480.97
2023-02-18T16:17:16.821Z,100487.00
2023-02-18T16:20:04.739Z,100484.19
2023-02-18T16:22:40.399Z,100483.34
2023-02-18T16:25:09.919Z,100488.78
2023-02-18T16:27:40.445Z,100490.34
2023-02-18T16:30:24.532Z,100500.16
2023-02-18T16:32:54.321Z,100503.91
2023-02-18T16:35:24.585Z,100497.22
2023-02-18T16:37:54.996Z,100501.97
2023-02-18T16:40:37.569Z,100503.81
2023-02-18T16:43:17.980Z,100494.84
2023-02-18T16:45:58.496Z,100487.69
2023-02-18T16:48:36.330Z,100493.00
2023-02-18T16:51:07.843Z,100480.81
2023-02-18T16:53:37.460Z,100487.09
2023-02-18T16:56:07.788Z,100480.94
2023-02-18T16:58:37.588Z,100485.44
2023-02-18T17:01:07.340Z,100480.25
2023-02-18T17:03:37.024Z,100484.72
2023-02-18T17:06:07.188Z,100485.44
2023-02-18T17:08:37.840Z,100478.44
2023-02-18T17:11:07.537Z,100472.81
2023-02-18T17:13:37.200Z,100475.06
2023-02-18T17:16:07.923Z,100463.31
2023-02-18T17:18:37.708Z,100464.13
2023-02-18T17:21:07.555Z,100462.59
2023-02-18T17:23:37.145Z,100461.75
2023-02-18T17:26:11.451Z,100447.59
2023-02-18T17:28:41.169Z,100446.03
2023-02-18T17:31:14.037Z,100453.06
2023-02-18T17:33:44.437Z,100454.59
2023-02-18T17:36:14.354Z,100443.25
2023-02-18T17:38:44.043Z,100450.41
2023-02-18T17:41:15.110Z,100448.44
2023-02-18T17:43:44.769Z,100444.78
2023-02-18T17:46:15.510Z,100442.84
2023-02-18T17:48:45.587Z,100438.50
2023-02-18T17:51:28.159Z,100447.59
2023-02-18T17:53:58.038Z,100441.28
2023-02-18T17:56:27.709Z,100448.84
2023-02-18T17:58:57.507Z,100450.25
2023-02-18T18:01:27.545Z,100442.53
2023-02-18T18:03:57.185Z,100453.06
2023-02-18T18:06:26.810Z,100440.44
2023-02-18T18:08:56.464Z,100451.94
2023-02-18T18:11:26.760Z,100438.91
2023-02-18T18:13:56.455Z,100433.44
2023-02-18T18:16:26.053Z,100432.31
2023-02-18T18:18:55.723Z,100434.25
2023-02-18T18:21:36.058Z,100437.38
2023-02-18T18:24:05.901Z,100443.53
2023-02-18T18:26:35.464Z,100431.91
2023-02-18T18:29:05.094Z,100428.41
2023-02-18T18:31:34.867Z,100429.50
2023-02-18T18:34:04.596Z,100420.97
2023-02-18T18:36:34.214Z,100427.97
2023-02-18T18:39:03.847Z,100428.66
2023-02-18T18:41:33.433Z,100431.59
2023-02-18T18:44:03.765Z,100432.59
2023-02-18T18:46:33.498Z,100430.66
2023-02-18T18:49:03.264Z,100431.91
2023-02-18T18:51:33.327Z,100417.16
2023-02-18T18:54:02.921Z,100415.22
2023-02-18T18:56:32.507Z,100420.81
2023-02-18T18:59:02.315Z,100427.81
2023-02-18T19:01:32.293Z,100432.16
2023-02-18T19:04:02.106Z,100426.13
2023-02-18T19:06:31.747Z,100439.31
2023-02-18T19:09:01.349Z,100438.72
2023-02-18T19:11:31.064Z,100441.25
2023-02-18T19:14:00.731Z,100436.66
2023-02-18T19:16:37.192Z,100424.56
2023-02-18T19:19:06.870Z,100421.78
2023-02-18T19:21:36.451Z,100413.53
2023-02-18T19:24:06.343Z,100416.47
2023-02-18T19:26:35.920Z,100412.00
2023-02-18T19:29:05.481Z,100415.72
2023-02-18T19:31:35.226Z,100411.28
2023-02-18T19:34:05.010Z,100412.00
2023-02-18T19:36:34.707Z,100404.50
2023-02-18T19:39:04.316Z,100397.09
2023-02-18T19:41:33.964Z,100408.03
2023-02-18T19:44:03.616Z,100417.44
2023-02-18T19:46:34.009Z,100426.78
2023-02-18T19:49:03.640Z,100426.66
2023-02-18T19:51:33.249Z,100428.59
2023-02-18T19:54:03.514Z,100428.06
2023-02-18T19:56:33.145Z,100429.31
2023-02-18T19:59:02.717Z,100424.84
2023-02-18T20:01:32.408Z,100439.09
2023-02-18T20:04:02.374Z,100421.34
2023-02-18T20:06:31.960Z,100425.69
2023-02-18T20:09:01.554Z,100418.94
2023-02-18T20:11:32.933Z,100421.59
2023-02-18T20:14:02.629Z,100423.69
2023-02-18T20:16:32.262Z,100429.13
2023-02-18T20:19:01.930Z,100418.78
2023-02-18T20:21:32.139Z,100417.81
2023-02-18T20:24:01.836Z,100422.16
2023-02-18T20:26:31.471Z,100430.84
2023-02-18T20:29:01.308Z,100434.59
2023-02-18T20:31:31.096Z,100442.16
2023-02-18T20:34:01.019Z,100443.28
2023-02-18T20:36:30.739Z,100451.56
2023-02-18T20:39:10.819Z,100454.06
2023-02-18T20:41:45.072Z,100438.69
2023-02-18T20:44:15.261Z,100439.50
2023-02-18T20:46:45.263Z,100449.59
2023-02-18T20:49:20.048Z,100451.66
2023-02-18T20:51:49.987Z,100442.00
2023-02-18T20:54:21.222Z,100446.22
2023-02-18T20:56:51.654Z,100454.06
2023-02-18T20:59:22.257Z,100449.59
2023-02-18T21:01:51.901Z,100448.88
2023-02-18T21:04:22.024Z,100457.28
2023-02-18T21:06:52.140Z,100467.50
2023-02-18T21:09:22.871Z,100478.28
2023-02-18T21:11:52.547Z,100491.00
2023-02-18T21:14:22.358Z,100469.88
2023-02-18T21:16:52.160Z,100469.72
2023-02-18T21:19:21.786Z,100465.78
2023-02-18T21:21:51.486Z,100469.13
2023-02-18T21:24:21.118Z,100473.50
2023-02-18T21:26:50.938Z,100479.53
2023-02-18T21:29:20.495Z,100477.13
2023-02-18T21:31:50.151Z,100478.94
2023-02-18T21:34:19.900Z,100469.72
2023-02-18T21:36:49.961Z,100468.03
2023-02-18T21:39:19.574Z,100465.53
2023-02-18T21:41:49.207Z,100465.66
2023-02-18T21:44:18.888Z,100457.94
2023-02-18T21:46:49.967Z,100458.06
2023-02-18T21:49:19.642Z,100457.66
2023-02-18T21:51:59.481Z,100456.97
2023-02-18T21:54:35.066Z,100479.78
2023-02-18T21:57:08.077Z,100480.75
2023-02-18T21:59:37.957Z,100471.22
2023-02-18T22:02:08.444Z,100469.13
2023-02-18T22:04:38.812Z,100469.97
2023-02-18T22:07:08.464Z,100472.63
2023-02-18T22:09:38.510Z,100480.84
2023-02-18T22:12:08.486Z,100474.97
2023-02-18T22:14:38.148Z,100469.22
2023-02-18T22:17:08.342Z,100476.78
2023-02-18T22:19:38.276Z,100478.59
2023-02-18T22:22:07.933Z,100486.56
2023-02-18T22:24:37.642Z,100497.06
2023-02-18T22:27:07.273Z,100481.94
2023-02-18T22:29:36.862Z,100475.22
2023-02-18T22:32:06.771Z,100484.03
2023-02-18T22:34:36.454Z,100493.72
2023-02-18T22:37:06.171Z,100499.28
2023-02-18T22:39:35.877Z,100497.88
2023-02-18T22:42:05.538Z,100495.91
2023-02-18T22:44:35.196Z,100500.28
2023-02-18T22:47:04.817Z,100502.94
2023-02-18T22:49:34.396Z,100510.63
2023-02-18T22:52:04.419Z,100506.44
2023-02-18T22:54:34.025Z,100509.34
2023-02-18T22:57:03.593Z,100521.91
2023-02-18T22:59:33.224Z,100523.22
2023-02-18T23:02:02.842Z,100529.38
2023-02-18T23:04:32.435Z,100530.88
2023-02-18T23:07:02.153Z,100543.09
2023-02-18T23:09:31.925Z,100551.91
2023-02-18T23:12:01.653Z,100554.41
2023-02-18T23:14:32.093Z,100552.88
2023-02-18T23:17:15.130Z,100552.59
2023-02-18T23:19:48.321Z,100551.06
2023-02-18T23:22:22.731Z,100547.66
2023-02-18T23:24:52.400Z,100533.69
2023-02-18T23:27:22.849Z,100544.31
2023-02-18T23:29:52.814Z,100550.91
2023-02-18T23:32:22.448Z,100544.75
2023-02-18T23:34:53.040Z,100545.00
2023-02-18T23:37:45.304Z,100552.88
2023-02-18T23:40:16.309Z,100556.63
2023-02-18T23:42:45.937Z,100556.78
2023-02-18T23:45:15.602Z,100554.94
2023-02-18T23:47:45.221Z,100558.69
2023-02-18T23:50:20.786Z,100552.28
2023-02-18T23:52:51.656Z,100553.13
2023-02-18T23:55:21.288Z,100552.97
2023-02-18T23:57:51.053Z,100548.50
